createdAt,value
2022-07-28T00:00:08.390Z,75.02
2022-07-28T00:02:35.418Z,75.04
2022-07-28T00:05:02.268Z,74.99
2022-07-28T00:07:28.966Z,74.92
2022-07-28T00:10:00.116Z,74.74
2022-07-28T00:12:27.274Z,74.85
2022-07-28T00:14:53.922Z,74.93
2022-07-28T00:17:20.583Z,75.03
2022-07-28T00:19:47.208Z,75.53
2022-07-28T00:22:13.799Z,75.48
2022-07-28T00:24:41.321Z,75.57
2022-07-28T00:27:08.290Z,75.71
2022-07-28T00:29:50.031Z,75.93
2022-07-28T00:32:18.570Z,75.75
2022-07-28T00:34:45.335Z,75.96
2022-07-28T00:37:14.695Z,75.60
2022-07-28T00:39:42.390Z,75.84
2022-07-28T00:42:09.245Z,75.83
2022-07-28T00:44:36.564Z,75.99
2022-07-28T00:47:03.285Z,76.01
2022-07-28T00:49:30.023Z,75.80
2022-07-28T00:51:57.254Z,75.88
2022-07-28T00:54:23.926Z,76.23
2022-07-28T00:56:51.008Z,76.18
2022-07-28T00:59:17.647Z,76.31
2022-07-28T01:01:44.565Z,76.31
2022-07-28T01:04:11.732Z,76.43
2022-07-28T01:07:16.951Z,76.33
2022-07-28T01:09:52.876Z,76.28
2022-07-28T01:12:30.138Z,75.85
2022-07-28T01:15:14.977Z,75.84
2022-07-28T01:18:04.997Z,75.60
2022-07-28T01:20:34.631Z,75.70
2022-07-28T01:23:32.003Z,75.66
2022-07-28T01:26:23.271Z,75.66
2022-07-28T01:29:20.157Z,75.54
2022-07-28T01:31:58.164Z,75.46
2022-07-28T01:34:32.007Z,75.28
2022-07-28T01:37:06.278Z,75.31
2022-07-28T01:39:36.061Z,75.53
2022-07-28T01:42:05.014Z,75.49
2022-07-28T01:44:34.416Z,75.33
2022-07-28T01:47:05.109Z,75.29
2022-07-28T01:49:32.393Z,75.38
2022-07-28T01:52:02.141Z,75.67
2022-07-28T01:54:30.384Z,75.82
2022-07-28T01:56:59.219Z,75.97
2022-07-28T01:59:30.221Z,75.81
2022-07-28T02:02:00.418Z,76.06
2022-07-28T02:04:31.118Z,75.94
2022-07-28T02:06:59.545Z,76.02
2022-07-28T02:09:27.330Z,76.17
2022-07-28T02:11:55.965Z,76.35
2022-07-28T02:14:25.692Z,75.99
2022-07-28T02:16:57.845Z,76.31
2022-07-28T02:19:26.045Z,76.13
2022-07-28T02:21:54.429Z,76.36
2022-07-28T02:24:26.286Z,76.54
2022-07-28T02:27:00.876Z,76.34
2022-07-28T02:29:50.347Z,76.13
2022-07-28T02:32:33.802Z,76.23
2022-07-28T02:35:09.676Z,76.04
2022-07-28T02:37:39.856Z,76.23
2022-07-28T02:40:12.189Z,76.32
2022-07-28T02:42:40.313Z,76.22
2022-07-28T02:45:11.737Z,76.24
2022-07-28T02:47:44.131Z,76.32
2022-07-28T02:50:14.308Z,76.15
2022-07-28T02:52:42.622Z,75.97
2022-07-28T02:55:12.169Z,76.13
2022-07-28T02:57:41.499Z,75.85
2022-07-28T03:00:08.775Z,75.72
2022-07-28T03:02:36.737Z,75.88
2022-07-28T03:05:07.715Z,75.78
2022-07-28T03:07:50.828Z,75.55
2022-07-28T03:10:33.695Z,75.75
2022-07-28T03:13:05.308Z,75.95
2022-07-28T03:15:32.223Z,75.80
2022-07-28T03:18:00.819Z,75.75
2022-07-28T03:20:28.011Z,75.83
2022-07-28T03:22:55.395Z,75.76
2022-07-28T03:25:40.486Z,75.36
2022-07-28T03:28:09.279Z,75.54
2022-07-28T03:30:41.862Z,75.60
2022-07-28T03:33:09.438Z,75.45
2022-07-28T03:35:44.936Z,75.37
2022-07-28T03:38:14.745Z,75.30
2022-07-28T03:40:46.976Z,75.49
2022-07-28T03:43:16.650Z,75.32
2022-07-28T03:45:46.718Z,75.29
2022-07-28T03:48:16.535Z,74.90
2022-07-28T03:50:43.315Z,74.93
2022-07-28T03:53:19.130Z,74.95
2022-07-28T03:55:50.583Z,74.72
2022-07-28T03:58:26.232Z,74.46
2022-07-28T04:00:55.963Z,74.44
2022-07-28T04:03:43.145Z,74.30
2022-07-28T04:06:09.637Z,74.21
2022-07-28T04:08:36.321Z,74.09
2022-07-28T04:11:03.197Z,73.94
2022-07-28T04:13:31.995Z,73.88
2022-07-28T04:15:59.988Z,73.84
2022-07-28T04:18:26.639Z,73.96
2022-07-28T04:20:53.265Z,73.68
2022-07-28T04:23:20.940Z,73.87
2022-07-28T04:25:47.961Z,73.60
2022-07-28T04:28:15.648Z,73.55
2022-07-28T04:30:44.126Z,73.36
2022-07-28T04:33:11.203Z,73.12
2022-07-28T04:35:37.913Z,73.54
2022-07-28T04:38:04.738Z,73.05
2022-07-28T04:40:33.927Z,73.13
2022-07-28T04:43:00.634Z,73.03
2022-07-28T04:45:27.341Z,72.95
2022-07-28T04:47:54.016Z,72.71
2022-07-28T04:50:21.551Z,72.89
2022-07-28T04:52:57.370Z,72.77
2022-07-28T04:55:24.475Z,72.79
2022-07-28T04:57:51.412Z,72.98
2022-07-28T05:00:18.674Z,73.05
2022-07-28T05:02:45.857Z,72.81
2022-07-28T05:05:13.530Z,73.20
2022-07-28T05:07:41.327Z,73.22
2022-07-28T05:10:10.315Z,73.07
2022-07-28T05:12:37.026Z,73.07
2022-07-28T05:15:04.994Z,72.80
2022-07-28T05:17:31.592Z,72.56
2022-07-28T05:19:58.377Z,72.65
2022-07-28T05:22:24.975Z,71.93
2022-07-28T05:24:51.639Z,72.04
2022-07-28T05:27:18.267Z,71.81
2022-07-28T05:29:47.719Z,71.40
2022-07-28T05:32:16.346Z,71.27
2022-07-28T05:34:43.752Z,70.95
2022-07-28T05:37:10.372Z,70.23
2022-07-28T05:39:37.581Z,70.40
2022-07-28T05:42:04.556Z,70.08
2022-07-28T05:44:37.217Z,69.23
2022-07-28T05:47:05.004Z,69.38
2022-07-28T05:49:31.715Z,68.07
2022-07-28T05:52:00.092Z,67.97
2022-07-28T05:54:26.780Z,68.48
2022-07-28T05:56:53.690Z,67.57
2022-07-28T05:59:20.334Z,67.68
2022-07-28T06:01:47.210Z,69.12
2022-07-28T06:04:26.597Z,68.07
2022-07-28T06:06:54.536Z,67.54
2022-07-28T06:09:21.149Z,66.82
2022-07-28T06:11:49.826Z,66.77
2022-07-28T06:14:16.776Z,67.29
2022-07-28T06:16:44.811Z,67.19
2022-07-28T06:19:11.564Z,66.69
2022-07-28T06:21:38.235Z,66.36
2022-07-28T06:24:05.393Z,66.23
2022-07-28T06:26:32.060Z,65.11
2022-07-28T06:28:58.734Z,66.36
2022-07-28T06:31:25.554Z,66.11
2022-07-28T06:33:52.183Z,66.83
2022-07-28T06:36:18.813Z,66.02
2022-07-28T06:38:45.601Z,64.99
2022-07-28T06:41:12.289Z,65.20
2022-07-28T06:43:39.447Z,64.40
2022-07-28T06:46:06.936Z,64.16
2022-07-28T06:48:34.234Z,64.28
2022-07-28T06:51:01.162Z,64.99
2022-07-28T06:53:32.390Z,63.83
2022-07-28T06:56:00.860Z,64.75
2022-07-28T06:58:27.504Z,64.27
2022-07-28T07:00:54.977Z,64.48
2022-07-28T07:03:21.721Z,63.66
2022-07-28T07:05:51.618Z,63.58
2022-07-28T07:08:20.833Z,64.21
2022-07-28T07:10:47.641Z,64.94
2022-07-28T07:13:14.296Z,65.75
2022-07-28T07:15:41.240Z,63.88
2022-07-28T07:18:08.207Z,62.58
2022-07-28T07:20:34.828Z,62.02
2022-07-28T07:23:01.680Z,62.44
2022-07-28T07:25:28.351Z,63.31
2022-07-28T07:27:55.027Z,63.24
2022-07-28T07:30:21.693Z,62.55
2022-07-28T07:32:48.422Z,61.46
2022-07-28T07:35:15.160Z,62.55
2022-07-28T07:37:41.826Z,63.38
2022-07-28T07:40:09.739Z,63.53
2022-07-28T07:42:36.615Z,63.16
2022-07-28T07:45:03.944Z,61.88
2022-07-28T07:47:31.108Z,63.11
2022-07-28T07:49:58.045Z,63.69
2022-07-28T07:52:27.100Z,62.86
2022-07-28T07:54:54.085Z,62.73
2022-07-28T07:57:23.402Z,62.84
2022-07-28T07:59:50.046Z,62.98
2022-07-28T08:02:16.699Z,62.22
2022-07-28T08:04:43.441Z,61.82
2022-07-28T08:07:10.287Z,61.85
2022-07-28T08:09:37.134Z,61.78
2022-07-28T08:12:04.106Z,61.75
2022-07-28T08:14:30.737Z,61.12
2022-07-28T08:17:07.879Z,60.34
2022-07-28T08:19:34.669Z,59.78
2022-07-28T08:22:02.476Z,59.18
2022-07-28T08:24:34.095Z,59.49
2022-07-28T08:27:02.326Z,61.27
2022-07-28T08:29:29.553Z,59.59
2022-07-28T08:31:56.545Z,60.00
2022-07-28T08:34:31.061Z,59.97
2022-07-28T08:37:00.715Z,59.40
2022-07-28T08:39:27.405Z,59.26
2022-07-28T08:42:18.042Z,58.56
2022-07-28T08:44:58.360Z,58.30
2022-07-28T08:47:40.615Z,58.60
2022-07-28T08:50:16.201Z,57.72
2022-07-28T08:52:45.537Z,57.58
2022-07-28T08:55:19.183Z,57.25
2022-07-28T08:57:46.723Z,57.06
2022-07-28T09:00:13.797Z,58.03
2022-07-28T09:02:47.038Z,59.29
2022-07-28T09:05:22.919Z,58.32
2022-07-28T09:07:54.615Z,57.84
2022-07-28T09:10:22.313Z,58.68
2022-07-28T09:12:49.056Z,57.39
2022-07-28T09:15:15.834Z,56.99
2022-07-28T09:17:43.140Z,56.87
2022-07-28T09:20:11.549Z,56.20
2022-07-28T09:22:56.514Z,56.89
2022-07-28T09:25:23.846Z,56.89
2022-07-28T09:27:51.849Z,56.56
2022-07-28T09:30:33.152Z,56.83
2022-07-28T09:33:41.902Z,56.42
2022-07-28T09:36:04.593Z,58.64
2022-07-28T09:38:43.211Z,57.93
2022-07-28T09:41:10.073Z,56.27
2022-07-28T09:43:37.927Z,54.82
2022-07-28T09:46:16.168Z,55.51
2022-07-28T09:48:51.775Z,56.11
2022-07-28T09:51:24.798Z,55.80
2022-07-28T09:53:52.459Z,57.02
2022-07-28T09:56:19.546Z,56.44
2022-07-28T09:59:00.540Z,55.81
2022-07-28T10:01:31.173Z,55.67
2022-07-28T10:04:04.295Z,55.00
2022-07-28T10:06:34.567Z,55.24
2022-07-28T10:09:05.457Z,55.61
2022-07-28T10:11:32.153Z,55.21
2022-07-28T10:14:00.306Z,56.88
2022-07-28T10:16:32.314Z,56.11
2022-07-28T10:19:01.649Z,55.48
2022-07-28T10:21:31.006Z,53.55
2022-07-28T10:24:04.625Z,55.13
2022-07-28T10:26:33.410Z,54.28
2022-07-28T10:29:05.786Z,53.38
2022-07-28T10:31:48.587Z,54.10
2022-07-28T10:34:24.641Z,53.86
2022-07-28T10:36:54.383Z,52.97
2022-07-28T10:39:23.931Z,53.74
2022-07-28T10:41:51.491Z,52.41
2022-07-28T10:44:19.839Z,52.96
2022-07-28T10:46:46.973Z,53.71
2022-07-28T10:49:14.861Z,54.34
2022-07-28T10:52:02.161Z,53.91
2022-07-28T10:54:33.355Z,53.79
2022-07-28T10:57:04.742Z,54.91
2022-07-28T10:59:58.632Z,54.70
2022-07-28T11:02:52.378Z,53.87
2022-07-28T11:05:39.643Z,53.22
2022-07-28T11:08:15.263Z,54.18
2022-07-28T11:10:50.091Z,52.78
2022-07-28T11:13:23.912Z,51.80
2022-07-28T11:15:57.641Z,52.70
2022-07-28T11:18:24.969Z,52.97
2022-07-28T11:20:58.703Z,52.21
2022-07-28T11:23:47.906Z,52.01
2022-07-28T11:26:20.897Z,52.12
2022-07-28T11:29:00.145Z,50.91
2022-07-28T11:31:47.774Z,51.08
2022-07-28T11:34:19.336Z,51.23
2022-07-28T11:36:58.937Z,51.69
2022-07-28T11:39:30.764Z,51.67
2022-07-28T11:42:28.254Z,50.95
2022-07-28T11:44:57.040Z,51.72
2022-07-28T11:47:25.731Z,51.29
2022-07-28T11:50:12.498Z,50.82
2022-07-28T11:52:40.188Z,51.81
2022-07-28T11:55:06.908Z,50.08
2022-07-28T11:57:41.601Z,51.07
2022-07-28T12:00:08.859Z,50.61
2022-07-28T12:02:35.750Z,50.33
2022-07-28T12:05:06.455Z,50.73
2022-07-28T12:07:35.758Z,52.15
2022-07-28T12:10:43.992Z,51.62
2022-07-28T12:13:09.332Z,51.23
2022-07-28T12:15:36.322Z,51.74
2022-07-28T12:18:03.148Z,51.83
2022-07-28T12:20:32.016Z,51.40
2022-07-28T12:23:02.648Z,52.41
2022-07-28T12:25:30.961Z,51.94
2022-07-28T12:28:02.032Z,52.25
2022-07-28T12:30:29.219Z,50.94
2022-07-28T12:32:56.001Z,50.33
2022-07-28T12:35:25.056Z,50.68
2022-07-28T12:37:52.090Z,50.74
2022-07-28T12:40:27.536Z,50.49
2022-07-28T12:42:54.355Z,49.97
2022-07-28T12:45:21.289Z,49.72
2022-07-28T12:47:48.282Z,50.16
2022-07-28T12:50:19.960Z,50.23
2022-07-28T12:53:08.322Z,49.37
2022-07-28T12:55:35.888Z,50.20
2022-07-28T12:58:03.247Z,49.18
2022-07-28T13:00:36.204Z,49.69
2022-07-28T13:03:26.313Z,49.71
2022-07-28T13:06:04.433Z,49.25
2022-07-28T13:08:47.772Z,49.01
2022-07-28T13:11:42.692Z,48.38
2022-07-28T13:14:03.338Z,49.35
2022-07-28T13:16:30.260Z,48.72
2022-07-28T13:19:05.805Z,49.47
2022-07-28T13:21:56.145Z,50.48
2022-07-28T13:24:26.761Z,50.56
2022-07-28T13:26:53.715Z,50.50
2022-07-28T13:29:20.467Z,50.29
2022-07-28T13:31:47.273Z,50.11
2022-07-28T13:34:14.914Z,48.77
2022-07-28T13:36:42.077Z,49.26
2022-07-28T13:39:10.776Z,50.52
2022-07-28T13:41:57.659Z,49.46
2022-07-28T13:44:24.309Z,49.10
2022-07-28T13:46:51.664Z,49.77
2022-07-28T13:49:21.312Z,49.08
2022-07-28T13:51:49.025Z,50.01
2022-07-28T13:54:19.030Z,49.83
2022-07-28T13:56:46.634Z,49.86
2022-07-28T13:59:13.753Z,51.04
2022-07-28T14:01:42.325Z,49.17
2022-07-28T14:04:14.624Z,49.51
2022-07-28T14:06:44.964Z,49.96
2022-07-28T14:09:12.974Z,50.51
2022-07-28T14:11:49.699Z,50.79
2022-07-28T14:14:25.235Z,50.10
2022-07-28T14:16:54.631Z,49.79
2022-07-28T14:19:23.605Z,48.45
2022-07-28T14:22:12.856Z,49.21
2022-07-28T14:24:44.294Z,49.84
2022-07-28T14:27:11.403Z,49.47
2022-07-28T14:29:40.337Z,49.30
2022-07-28T14:32:07.270Z,48.92
2022-07-28T14:34:34.622Z,48.72
2022-07-28T14:37:03.520Z,47.32
2022-07-28T14:39:35.213Z,48.61
2022-07-28T14:42:01.911Z,47.62
2022-07-28T14:44:28.588Z,47.97
2022-07-28T14:46:55.310Z,47.49
2022-07-28T14:49:22.019Z,46.93
2022-07-28T14:51:48.810Z,47.49
2022-07-28T14:54:16.008Z,46.68
2022-07-28T14:56:43.028Z,47.13
2022-07-28T14:59:09.703Z,47.70
2022-07-28T15:01:36.624Z,47.54
2022-07-28T15:04:04.154Z,46.08
2022-07-28T15:06:31.050Z,46.82
2022-07-28T15:08:58.550Z,47.36
2022-07-28T15:11:25.804Z,47.98
2022-07-28T15:13:52.591Z,46.85
2022-07-28T15:16:19.416Z,47.79
2022-07-28T15:18:46.069Z,49.00
2022-07-28T15:21:16.660Z,49.71
2022-07-28T15:23:44.154Z,49.52
2022-07-28T15:26:10.992Z,51.01
2022-07-28T15:28:37.838Z,49.56
2022-07-28T15:31:06.690Z,48.08
2022-07-28T15:33:43.849Z,49.74
2022-07-28T15:36:14.735Z,49.94
2022-07-28T15:38:41.541Z,49.07
2022-07-28T15:41:13.002Z,49.04
2022-07-28T15:43:39.825Z,48.56
2022-07-28T15:46:10.962Z,50.00
2022-07-28T15:48:39.659Z,48.94
2022-07-28T15:51:06.337Z,47.75
2022-07-28T15:53:34.453Z,47.44
2022-07-28T15:56:01.360Z,48.15
2022-07-28T15:58:27.956Z,48.32
2022-07-28T16:00:54.839Z,48.44
2022-07-28T16:03:24.768Z,48.26
2022-07-28T16:05:52.944Z,46.21
2022-07-28T16:08:22.969Z,46.70
2022-07-28T16:10:51.266Z,46.08
2022-07-28T16:13:22.760Z,47.44
2022-07-28T16:16:14.036Z,45.63
2022-07-28T16:18:42.816Z,47.88
2022-07-28T16:21:10.963Z,46.83
2022-07-28T16:23:38.081Z,46.40
2022-07-28T16:26:07.774Z,46.82
2022-07-28T16:28:35.024Z,44.84
2022-07-28T16:31:01.722Z,44.22
2022-07-28T16:33:33.129Z,43.10
2022-07-28T16:36:03.914Z,41.59
2022-07-28T16:38:30.783Z,41.38
2022-07-28T16:40:57.606Z,42.53
2022-07-28T16:43:24.862Z,41.88
2022-07-28T16:45:54.457Z,41.30
2022-07-28T16:48:21.284Z,40.84
2022-07-28T16:50:48.300Z,39.38
2022-07-28T16:53:16.420Z,40.20
2022-07-28T16:55:43.297Z,41.05
2022-07-28T16:58:09.956Z,40.24
2022-07-28T17:00:36.670Z,40.66
2022-07-28T17:03:03.369Z,42.43
2022-07-28T17:05:30.070Z,42.50
2022-07-28T17:07:56.809Z,41.30
2022-07-28T17:10:27.292Z,42.26
2022-07-28T17:12:54.677Z,43.46
2022-07-28T17:15:22.606Z,42.38
2022-07-28T17:17:53.142Z,42.10
2022-07-28T17:20:20.871Z,42.53
2022-07-28T17:22:50.532Z,42.91
2022-07-28T17:28:05.504Z,44.19
2022-07-28T17:30:33.153Z,44.36
2022-07-28T17:33:04.813Z,42.29
2022-07-28T17:35:35.135Z,44.90
2022-07-28T17:38:04.011Z,43.02
2022-07-28T17:40:30.891Z,43.07
2022-07-28T17:42:57.718Z,43.93
2022-07-28T17:45:24.853Z,44.39
2022-07-28T17:47:51.817Z,44.68
2022-07-28T17:50:19.019Z,44.34
2022-07-28T17:52:48.798Z,44.74
2022-07-28T17:55:57.515Z,43.52
2022-07-28T17:58:28.705Z,43.23
2022-07-28T18:01:10.417Z,42.63
2022-07-28T18:03:57.935Z,44.21
2022-07-28T18:06:34.486Z,43.22
2022-07-28T18:09:06.957Z,43.86
2022-07-28T18:11:57.164Z,44.40
2022-07-28T18:14:29.162Z,45.46
2022-07-28T18:16:56.604Z,45.83
2022-07-28T18:19:23.344Z,45.83
2022-07-28T18:21:50.237Z,46.56
2022-07-28T18:24:18.472Z,46.25
2022-07-28T18:26:45.559Z,47.20
2022-07-28T18:29:12.244Z,47.80
2022-07-28T18:31:45.508Z,46.58
2022-07-28T18:34:13.658Z,46.79
2022-07-28T18:36:40.679Z,45.43
2022-07-28T18:39:07.483Z,45.25
2022-07-28T18:41:45.968Z,44.31
2022-07-28T18:44:15.503Z,44.54
2022-07-28T18:46:42.555Z,46.16
2022-07-28T18:49:09.311Z,47.11
2022-07-28T18:51:36.129Z,47.48
2022-07-28T18:54:02.765Z,47.20
2022-07-28T18:56:29.344Z,47.42
2022-07-28T18:58:57.152Z,47.80
2022-07-28T19:01:23.925Z,49.22
2022-07-28T19:03:50.759Z,50.21
2022-07-28T19:06:17.357Z,51.23
2022-07-28T19:08:44.087Z,51.69
2022-07-28T19:11:10.666Z,52.38
2022-07-28T19:13:37.446Z,53.12
2022-07-28T19:16:04.559Z,53.70
2022-07-28T19:18:31.225Z,54.12
2022-07-28T19:20:57.911Z,54.55
2022-07-28T19:23:24.612Z,54.63
2022-07-28T19:25:51.715Z,54.76
2022-07-28T19:28:18.519Z,54.37
2022-07-28T19:30:45.231Z,54.17
2022-07-28T19:33:14.677Z,54.41
2022-07-28T19:35:45.497Z,54.94
2022-07-28T19:38:12.554Z,55.35
2022-07-28T19:40:41.412Z,55.43
2022-07-28T19:43:08.103Z,55.77
2022-07-28T19:45:37.229Z,55.69
2022-07-28T19:48:04.185Z,55.49
2022-07-28T19:50:31.075Z,55.74
2022-07-28T19:52:58.076Z,56.00
2022-07-28T19:55:26.972Z,55.90
2022-07-28T19:57:56.130Z,55.83
2022-07-28T20:00:22.871Z,55.54
2022-07-28T20:02:49.697Z,55.71
2022-07-28T20:05:16.887Z,55.51
2022-07-28T20:07:43.557Z,55.29
2022-07-28T20:10:10.306Z,55.17
2022-07-28T20:12:37.316Z,55.26
2022-07-28T20:15:05.718Z,55.14
2022-07-28T20:17:40.114Z,55.22
2022-07-28T20:20:12.086Z,55.15
2022-07-28T20:22:41.043Z,55.54
2022-07-28T20:25:09.441Z,55.41
2022-07-28T20:27:40.966Z,55.91
2022-07-28T20:30:10.304Z,56.01
2022-07-28T20:32:37.932Z,56.08
2022-07-28T20:35:05.912Z,56.31
2022-07-28T20:37:36.720Z,56.34
2022-07-28T20:40:08.073Z,56.28
2022-07-28T20:42:37.660Z,56.30
2022-07-28T20:45:05.156Z,56.18
2022-07-28T20:47:37.674Z,55.76
2022-07-28T20:50:05.257Z,56.02
2022-07-28T20:52:33.724Z,56.58
2022-07-28T20:55:04.466Z,56.78
2022-07-28T20:57:31.367Z,57.20
2022-07-28T20:59:58.046Z,57.41
2022-07-28T21:02:24.734Z,57.55
2022-07-28T21:04:52.006Z,57.36
2022-07-28T21:07:59.568Z,57.09
2022-07-28T21:10:06.941Z,57.07
2022-07-28T21:12:36.750Z,57.11
2022-07-28T21:15:10.600Z,57.07
2022-07-28T21:17:37.497Z,57.26
2022-07-28T21:20:06.113Z,57.30
2022-07-28T21:22:32.891Z,57.16
2022-07-28T21:24:59.512Z,57.47
2022-07-28T21:27:26.217Z,57.19
2022-07-28T21:32:18.751Z,57.49
2022-07-28T21:34:45.456Z,57.96
2022-07-28T21:37:13.001Z,57.58
2022-07-28T21:39:39.945Z,57.95
2022-07-28T21:42:08.464Z,58.28
2022-07-28T21:44:36.538Z,58.69
2022-07-28T21:47:03.723Z,58.68
2022-07-28T21:49:31.347Z,58.43
2022-07-28T21:51:58.346Z,58.74
2022-07-28T21:54:25.037Z,59.20
2022-07-28T21:56:51.884Z,59.63
2022-07-28T21:59:18.500Z,60.69
2022-07-28T22:01:45.161Z,60.42
2022-07-28T22:04:12.145Z,60.60
2022-07-28T22:06:38.944Z,60.44
2022-07-28T22:09:05.561Z,61.19
2022-07-28T22:11:32.199Z,61.51
2022-07-28T22:13:58.854Z,61.29
2022-07-28T22:16:25.511Z,61.13
2022-07-28T22:18:52.254Z,60.97
2022-07-28T22:21:18.843Z,60.94
2022-07-28T22:23:45.485Z,60.67
2022-07-28T22:26:12.189Z,60.57
2022-07-28T22:28:38.897Z,60.69
2022-07-28T22:31:09.655Z,60.24
2022-07-28T22:33:40.044Z,60.67
2022-07-28T22:36:08.695Z,60.55
2022-07-28T22:38:36.013Z,60.77
2022-07-28T22:41:02.907Z,60.89
2022-07-28T22:43:32.163Z,60.92
2022-07-28T22:45:58.958Z,61.04
2022-07-28T22:48:25.656Z,61.00
2022-07-28T22:50:52.429Z,61.22
2022-07-28T22:53:19.054Z,61.41
2022-07-28T22:58:30.074Z,61.85
2022-07-28T23:00:56.937Z,62.36
2022-07-28T23:03:25.690Z,62.32
2022-07-28T23:06:00.589Z,62.77
2022-07-28T23:08:27.642Z,63.01
2022-07-28T23:10:54.576Z,62.77
2022-07-28T23:13:21.187Z,62.53
2022-07-28T23:15:47.829Z,62.44
2022-07-28T23:18:14.593Z,62.29
2022-07-28T23:20:41.784Z,62.31
2022-07-28T23:23:08.846Z,62.85
2022-07-28T23:25:42.693Z,63.27
2022-07-28T23:28:10.273Z,64.17
2022-07-28T23:30:37.477Z,64.21
2022-07-28T23:33:05.537Z,64.81
2022-07-28T23:35:32.579Z,65.15
2022-07-28T23:37:59.176Z,65.12
2022-07-28T23:40:25.915Z,64.84
2022-07-28T23:42:52.575Z,65.76
2022-07-28T23:45:19.306Z,65.99
2022-07-28T23:47:45.934Z,66.27
2022-07-28T23:50:12.575Z,67.00
2022-07-28T23:52:39.155Z,67.20
2022-07-28T23:55:06.621Z,67.14
2022-07-28T23:57:33.321Z,67.75
